Aeroporto :
LOGIN :

Iscrizione | Disclaimer

   EN    FR    IT 

 










Sommario :    VFR   VFR Marginale   IFR   IFR Intensivo   IFR Molto Intensivo
Visibilità : 
Base nubi : 
>= 8 km
>= 3000ft
5 / 8 km
1000 / 3000 ft
1500m / 5 km
500 / 1000 ft
800 / 1500m
200 / 500 ft
< 800m
< 200 ft
Simboli :   Temporali  Nebbia  Neve Forte  Precipitazioni Forti  Vento > 20 kt
SIGMETs :   Varie  Temporali  Ghiacco  Turbolenza  Onda orograficha  Ceneri Vulcaniche







- Altitudine del aeroporto : 72 ft
- Codice IATA : UDE


EHVK - Volkel Airbase

ULTIMO METAR :
  • 211925Z AUTO 10006KT 9999 NCD 18/05 Q1013 BLU

METARs OBSOLETI :
  • 211855Z AUTO 10006KT 9999 NCD 19/05 Q1013 BLU
  • 211825Z AUTO 10004KT 9999 NCD 19/05 Q1013 BLU
  • 211755Z AUTO 11005KT 9999 NCD 20/05 Q1014 BLU
  • 211725Z AUTO 12007KT 080V150 9999 NCD 22/04 Q1014 BLU
  • 211655Z AUTO 12007KT 090V160 9999 NCD 23/04 Q1014 BLU

TAF TAF EHVK
Valido dal 21 a 17 ore il 22 a 05 ore UTC


211633Z 2117/2205 12006KT CAVOK
Nessun NOTAM noto per questo aeroporto.



MetMap, La meteo Aeronautica in un colpo d'occhio ! - Copyright ORBIFLY Dicembre 2007 - Disclaimer

ORBIFLY MET'MAP TEAM :

Programmazione e sviluppo : Alexandra Zaïnal
Concezione e sviluppo : Baudouin d'Aumeries
Co-Programmazione e sviluppo : Marc-Olivier Méhu
Supporto tecnico e logistico : Manuel Goepfert
Aiuto per la traduzione : Arnaldo La Scala

Contatto : metmap@orbifly.com




FONTI E CREDITI :

   NOAA